Time;durP1;ratioP1;P1;durP2;ratioP2;P2;SDS_P1;SDS_P2;PMS_P1;PMS_P2;Temp;Humidity;BMP_temperature;BMP_pressure;BME280_temperature;BME280_humidity;BME280_pressure;Samples;Min_cycle;Max_cycle;Signal;HPM_P1;HPM_P2
2023/12/03 00:02:20;;;;;;;2.53;1.40;;;-0.70;99.90;;;;;;5107225;27;20128;-66
2023/12/03 00:04:46;;;;;;;3.15;1.83;;;-0.70;99.90;;;;;;5118888;27;20047;-67
2023/12/03 00:07:12;;;;;;;1.58;1.30;;;-0.70;99.90;;;;;;5096524;28;20039;-66
2023/12/03 00:09:38;;;;;;;0.68;0.50;;;-0.70;99.90;;;;;;5091111;27;20059;-67
2023/12/03 00:12:06;;;;;;;2.03;1.27;;;-0.80;99.90;;;;;;5111452;27;20051;-66
2023/12/03 00:14:34;;;;;;;3.97;1.42;;;-0.80;99.90;;;;;;5101131;27;20045;-66
2023/12/03 00:17:00;;;;;;;2.15;1.75;;;-0.80;99.90;;;;;;5107455;27;20126;-66
2023/12/03 00:19:26;;;;;;;1.45;1.23;;;-0.80;99.90;;;;;;5090235;27;20031;-67
2023/12/03 00:21:52;;;;;;;2.65;1.83;;;-0.80;99.90;;;;;;5107591;27;20042;-66
2023/12/03 00:24:18;;;;;;;6.65;2.13;;;-0.80;99.90;;;;;;5093696;27;20035;-66
2023/12/03 00:26:44;;;;;;;2.75;1.30;;;-0.80;99.90;;;;;;5110748;27;20122;-66
2023/12/03 00:29:12;;;;;;;2.50;1.75;;;-0.80;99.90;;;;;;5110263;27;20038;-66
2023/12/03 00:31:39;;;;;;;3.75;1.55;;;-0.80;99.90;;;;;;5111230;27;20058;-66
2023/12/03 00:34:05;;;;;;;4.20;2.13;;;-0.90;99.90;;;;;;5111080;28;20119;-66
2023/12/03 00:36:31;;;;;;;2.00;1.42;;;-0.90;99.90;;;;;;5088596;27;20046;-66
2023/12/03 00:38:57;;;;;;;2.25;1.58;;;-0.90;99.90;;;;;;5110035;27;20074;-66
2023/12/03 00:41:23;;;;;;;1.20;1.10;;;-0.90;99.90;;;;;;5104267;27;20761;-66
2023/12/03 00:43:49;;;;;;;5.63;1.83;;;-0.90;99.90;;;;;;5112019;27;20066;-66
2023/12/03 00:46:22;;;;;;;3.97;1.45;;;-0.90;99.90;;;;;;5109974;28;20035;-66
2023/12/03 00:48:48;;;;;;;2.67;1.15;;;-1.00;99.90;;;;;;5085626;28;20035;-66
2023/12/03 00:51:14;;;;;;;3.67;1.35;;;-0.90;99.90;;;;;;5110247;27;20138;-66
2023/12/03 00:53:44;;;;;;;1.35;1.05;;;-1.00;99.90;;;;;;5082690;28;20048;-66
2023/12/03 00:56:11;;;;;;;4.28;1.10;;;-1.00;99.90;;;;;;5100286;28;20031;-66
2023/12/03 00:58:37;;;;;;;1.83;1.00;;;-1.00;99.90;;;;;;5090863;27;20567;-66
2023/12/03 01:01:04;;;;;;;1.77;1.48;;;-1.00;99.90;;;;;;5109847;28;20119;-66
2023/12/03 01:03:30;;;;;;;1.15;1.00;;;-1.00;99.90;;;;;;5091444;28;20047;-66
2023/12/03 01:05:57;;;;;;;3.00;1.42;;;-1.00;99.90;;;;;;5111555;28;20043;-67
2023/12/03 01:08:23;;;;;;;4.20;1.85;;;-1.00;99.90;;;;;;5108329;28;20067;-68
2023/12/03 01:10:49;;;;;;;2.33;1.73;;;-1.00;99.90;;;;;;5108406;28;20051;-66
2023/12/03 01:13:14;;;;;;;2.45;1.33;;;-1.00;99.90;;;;;;5096812;28;20052;-67
2023/12/03 01:15:40;;;;;;;1.70;1.00;;;-1.00;99.90;;;;;;5092613;27;20486;-66
2023/12/03 01:18:07;;;;;;;1.70;1.33;;;-1.00;99.90;;;;;;5096464;27;20035;-66
2023/12/03 01:20:33;;;;;;;2.80;2.15;;;-1.00;99.90;;;;;;5106912;28;20479;-66
2023/12/03 01:22:58;;;;;;;2.00;1.67;;;-1.00;99.90;;;;;;5112465;28;20055;-67
2023/12/03 01:25:24;;;;;;;2.63;1.20;;;-1.10;99.90;;;;;;5108596;27;20050;-66
2023/12/03 01:27:50;;;;;;;3.17;1.85;;;-1.10;99.90;;;;;;5113679;28;20453;-66
2023/12/03 01:30:16;;;;;;;0.82;0.68;;;-1.10;99.90;;;;;;5094021;27;20047;-66
2023/12/03 01:32:41;;;;;;;3.78;1.55;;;-1.10;99.90;;;;;;5110493;28;20027;-66
2023/12/03 01:35:07;;;;;;;1.42;1.27;;;-1.10;99.90;;;;;;5096053;27;20107;-66
2023/12/03 01:37:33;;;;;;;1.75;1.38;;;-1.10;99.90;;;;;;5111895;27;20184;-66
2023/12/03 01:39:59;;;;;;;2.38;1.45;;;-1.10;99.90;;;;;;5110102;28;20039;-67
2023/12/03 01:42:25;;;;;;;1.10;0.70;;;-1.10;99.90;;;;;;5091574;28;20125;-66
2023/12/03 01:44:51;;;;;;;1.77;0.75;;;-1.10;99.90;;;;;;5106288;28;20046;-66
2023/12/03 01:47:18;;;;;;;3.22;0.95;;;-1.10;99.90;;;;;;5104901;28;20035;-67
2023/12/03 01:49:45;;;;;;;0.93;0.80;;;-1.10;99.90;;;;;;5109247;27;20096;-66
2023/12/03 01:52:12;;;;;;;1.83;0.95;;;-1.10;99.90;;;;;;5109863;28;20528;-66
2023/12/03 01:54:42;;;;;;;1.50;1.08;;;-1.10;99.90;;;;;;5110770;28;20414;-67
2023/12/03 01:57:08;;;;;;;1.40;0.93;;;-1.10;99.90;;;;;;5113641;27;20123;-66
2023/12/03 01:59:35;;;;;;;1.95;1.50;;;-1.10;99.90;;;;;;5109905;27;20464;-66
2023/12/03 02:02:02;;;;;;;1.33;0.90;;;-1.10;99.90;;;;;;5098027;27;20475;-66
2023/12/03 02:04:27;;;;;;;2.97;1.48;;;-1.10;99.90;;;;;;5109989;27;20039;-66
2023/12/03 02:06:53;;;;;;;2.13;1.60;;;-1.10;99.90;;;;;;5109620;27;20031;-66
2023/12/03 02:09:19;;;;;;;2.55;0.85;;;-1.10;99.90;;;;;;5111025;27;20039;-66
2023/12/03 02:11:46;;;;;;;4.13;1.77;;;-1.10;99.90;;;;;;5111317;27;20772;-66
2023/12/03 02:14:13;;;;;;;3.72;2.08;;;-1.00;99.90;;;;;;5114536;27;20059;-66
2023/12/03 02:16:47;;;;;;;7.60;2.92;;;-0.90;99.90;;;;;;5110331;27;20070;-67
2023/12/03 02:19:16;;;;;;;4.28;2.08;;;-0.90;99.90;;;;;;5115539;27;20038;-66
2023/12/03 02:21:43;;;;;;;1.30;0.93;;;-0.80;99.90;;;;;;5113240;27;20462;-66
2023/12/03 02:24:09;;;;;;;3.67;1.35;;;-0.80;99.90;;;;;;5112047;27;20049;-66
2023/12/03 02:26:35;;;;;;;3.17;2.10;;;-0.80;99.90;;;;;;5109766;27;20419;-66
2023/12/03 02:29:00;;;;;;;5.10;3.05;;;-0.70;99.90;;;;;;5116173;27;20031;-66
2023/12/03 02:31:30;;;;;;;3.92;3.10;;;-0.70;99.90;;;;;;5111541;27;20776;-66
2023/12/03 02:34:05;;;;;;;4.85;2.72;;;-0.70;99.90;;;;;;5095903;27;20518;-67
2023/12/03 02:36:31;;;;;;;2.78;1.90;;;-0.70;99.90;;;;;;5112079;27;20521;-67
2023/12/03 02:38:56;;;;;;;4.07;1.85;;;-0.60;99.90;;;;;;5114118;27;20039;-66
2023/12/03 02:41:22;;;;;;;5.00;2.38;;;-0.60;99.90;;;;;;5113560;27;20490;-66
2023/12/03 02:43:48;;;;;;;4.32;2.22;;;-0.60;99.90;;;;;;5112506;27;20124;-67
2023/12/03 02:46:14;;;;;;;2.72;1.52;;;-0.50;99.90;;;;;;5112865;27;20399;-67
2023/12/03 02:48:39;;;;;;;5.72;1.88;;;-0.60;99.90;;;;;;5116096;27;20047;-67
2023/12/03 02:51:06;;;;;;;6.53;2.72;;;-0.60;99.90;;;;;;5113789;27;20505;-66
2023/12/03 02:53:31;;;;;;;2.78;1.63;;;-0.60;99.90;;;;;;5114620;27;20071;-66
2023/12/03 02:55:58;;;;;;;3.08;1.85;;;-0.60;99.90;;;;;;5110172;27;20132;-67
2023/12/03 02:58:25;;;;;;;5.18;2.13;;;-0.70;99.90;;;;;;5111287;27;20479;-66
2023/12/03 03:00:50;;;;;;;6.18;1.63;;;-0.70;99.90;;;;;;5114421;27;20038;-67
2023/12/03 03:03:16;;;;;;;4.70;2.53;;;-0.70;99.90;;;;;;5094781;27;20125;-66
2023/12/03 03:05:42;;;;;;;5.20;2.30;;;-0.70;99.90;;;;;;5096526;27;20039;-66
2023/12/03 03:08:08;;;;;;;3.05;1.33;;;-0.80;99.90;;;;;;5090847;27;20103;-66
2023/12/03 03:10:33;;;;;;;3.47;1.98;;;-0.80;99.90;;;;;;5105790;27;20047;-67
2023/12/03 03:13:00;;;;;;;4.03;1.90;;;-0.90;99.90;;;;;;5111629;27;20067;-66
2023/12/03 03:15:26;;;;;;;8.40;2.80;;;-0.90;99.90;;;;;;5091599;27;20039;-66
2023/12/03 03:17:52;;;;;;;3.10;1.90;;;-1.00;99.90;;;;;;5111242;27;20042;-67
2023/12/03 03:20:21;;;;;;;3.03;2.08;;;-1.00;99.90;;;;;;5109706;27;20482;-66
2023/12/03 03:22:47;;;;;;;3.72;2.05;;;-1.00;99.90;;;;;;5123388;27;20126;-66
2023/12/03 03:25:14;;;;;;;3.45;2.10;;;-0.90;99.90;;;;;;5108841;27;20467;-66
2023/12/03 03:27:39;;;;;;;4.43;2.00;;;-1.00;99.90;;;;;;5113161;27;20175;-66
2023/12/03 03:30:08;;;;;;;4.95;2.65;;;-1.00;99.90;;;;;;5107657;27;20039;-67
2023/12/03 03:32:34;;;;;;;11.93;2.20;;;-1.00;99.90;;;;;;5093183;27;20039;-67
2023/12/03 03:35:07;;;;;;;4.57;2.40;;;-1.00;99.90;;;;;;5103742;27;20036;-66
2023/12/03 03:37:32;;;;;;;4.88;2.92;;;-1.00;99.90;;;;;;5109694;27;20031;-67
2023/12/03 03:39:58;;;;;;;10.50;3.70;;;-1.00;99.90;;;;;;5109036;27;20117;-67
2023/12/03 03:42:24;;;;;;;5.57;3.08;;;-0.90;99.90;;;;;;5105451;27;20495;-66
2023/12/03 03:44:50;;;;;;;8.02;3.85;;;-0.70;99.90;;;;;;5105212;28;20520;-67
2023/12/03 03:47:16;;;;;;;8.90;4.97;;;-0.50;99.90;;;;;;5107493;27;20118;-67
2023/12/03 03:49:42;;;;;;;6.40;3.85;;;-0.40;99.90;;;;;;5107623;27;20047;-67
2023/12/03 03:52:08;;;;;;;8.23;4.05;;;-0.30;99.90;;;;;;5112032;27;20046;-67
2023/12/03 03:54:33;;;;;;;8.27;3.28;;;-0.20;99.90;;;;;;5123504;27;20099;-66
2023/12/03 03:56:59;;;;;;;7.47;4.38;;;-0.20;99.90;;;;;;5116255;27;20040;-66
2023/12/03 03:59:28;;;;;;;8.05;4.45;;;-0.10;99.90;;;;;;5114631;27;20118;-67
2023/12/03 04:01:54;;;;;;;17.13;5.05;;;0.00;99.90;;;;;;5113116;27;20081;-66
2023/12/03 04:04:20;;;;;;;11.15;4.45;;;0.00;99.90;;;;;;5112216;27;20054;-67
2023/12/03 04:06:46;;;;;;;7.97;3.38;;;0.10;99.90;;;;;;5115361;27;20517;-67
2023/12/03 04:09:13;;;;;;;9.10;5.13;;;0.10;99.90;;;;;;5118563;27;20047;-66
2023/12/03 04:11:46;;;;;;;9.35;5.45;;;0.10;99.90;;;;;;5117577;27;20103;-67
2023/12/03 04:14:15;;;;;;;6.68;4.93;;;0.20;99.90;;;;;;5112219;27;20065;-67
2023/12/03 04:16:40;;;;;;;12.65;6.15;;;0.20;99.90;;;;;;5131037;27;20053;-67
2023/12/03 04:19:06;;;;;;;12.05;5.57;;;0.30;99.90;;;;;;5116380;27;20031;-66
2023/12/03 04:21:33;;;;;;;10.93;5.68;;;0.30;99.90;;;;;;5111472;27;20046;-67
2023/12/03 04:23:59;;;;;;;12.05;6.15;;;0.20;99.90;;;;;;5106974;27;20609;-67
2023/12/03 04:26:25;;;;;;;8.35;5.00;;;0.30;99.90;;;;;;5110479;27;20043;-67
2023/12/03 04:28:52;;;;;;;11.23;4.80;;;0.30;99.90;;;;;;5112809;27;20047;-67
2023/12/03 04:31:19;;;;;;;26.60;5.88;;;0.30;99.90;;;;;;5109951;27;20529;-67
2023/12/03 04:33:46;;;;;;;5.88;4.30;;;0.30;99.90;;;;;;5111041;27;20047;-67
2023/12/03 04:36:12;;;;;;;16.08;5.20;;;0.40;99.90;;;;;;5109972;27;20051;-66
2023/12/03 04:38:38;;;;;;;16.00;6.30;;;0.40;99.90;;;;;;5110139;27;20043;-67
2023/12/03 04:41:04;;;;;;;15.35;7.25;;;0.50;99.90;;;;;;5110033;27;20494;-67
2023/12/03 04:43:30;;;;;;;19.63;4.15;;;0.50;99.90;;;;;;5106863;27;20031;-67
2023/12/03 04:45:56;;;;;;;10.57;5.15;;;0.60;99.90;;;;;;5104034;27;20494;-66
2023/12/03 04:48:22;;;;;;;13.10;7.00;;;0.60;99.90;;;;;;5095720;27;20035;-67
2023/12/03 04:50:48;;;;;;;16.48;6.07;;;0.60;99.90;;;;;;5096204;27;20083;-67
2023/12/03 04:53:14;;;;;;;31.70;6.32;;;0.60;99.90;;;;;;5109590;28;20044;-67
2023/12/03 04:55:40;;;;;;;4.15;3.45;;;0.70;99.90;;;;;;5109901;27;20823;-67
2023/12/03 04:58:05;;;;;;;9.82;4.43;;;0.70;99.90;;;;;;5112021;28;20030;-67
2023/12/03 05:00:31;;;;;;;12.95;5.30;;;0.70;99.90;;;;;;5111509;28;20382;-67
2023/12/03 05:02:57;;;;;;;11.02;5.57;;;0.70;99.90;;;;;;5094360;28;20066;-67
2023/12/03 05:05:23;;;;;;;10.18;4.47;;;0.70;99.90;;;;;;5109166;28;20117;-67
2023/12/03 05:07:48;;;;;;;14.68;5.28;;;0.70;99.90;;;;;;5111623;28;20035;-67
2023/12/03 05:10:14;;;;;;;11.13;5.35;;;0.70;99.90;;;;;;5108898;27;20047;-67
2023/12/03 05:12:40;;;;;;;8.20;4.45;;;0.70;99.90;;;;;;5111221;27;20043;-67
2023/12/03 05:15:06;;;;;;;16.00;4.80;;;0.70;99.90;;;;;;5092292;28;20115;-67
2023/12/03 05:17:32;;;;;;;7.55;2.88;;;0.70;99.90;;;;;;5109174;27;20480;-67
2023/12/03 05:19:58;;;;;;;7.50;3.38;;;0.70;99.90;;;;;;5092402;28;20051;-67
2023/12/03 05:22:24;;;;;;;8.20;4.03;;;0.70;99.90;;;;;;5106257;28;20031;-67
2023/12/03 05:24:50;;;;;;;8.45;3.92;;;0.70;99.90;;;;;;5111555;28;20058;-67
2023/12/03 05:27:15;;;;;;;7.07;3.47;;;0.70;99.90;;;;;;5112348;27;20039;-67
2023/12/03 05:29:43;;;;;;;4.88;2.05;;;0.80;99.90;;;;;;5107084;28;20039;-68
2023/12/03 05:32:09;;;;;;;8.55;3.88;;;0.80;99.90;;;;;;5097767;27;20119;-67
2023/12/03 05:34:35;;;;;;;8.30;3.70;;;0.80;99.90;;;;;;5112345;27;20372;-67
2023/12/03 05:37:01;;;;;;;16.63;6.28;;;0.70;99.90;;;;;;5116149;27;20035;-67
2023/12/03 05:39:27;;;;;;;5.80;2.97;;;0.80;99.90;;;;;;5112655;27;20045;-68
2023/12/03 05:41:53;;;;;;;6.55;3.55;;;0.70;99.90;;;;;;5106220;27;20041;-67
2023/12/03 05:44:18;;;;;;;13.00;4.15;;;0.70;99.90;;;;;;5113885;27;20027;-67
2023/12/03 05:46:44;;;;;;;14.38;5.82;;;0.70;99.90;;;;;;5109646;27;20045;-67
2023/12/03 05:49:10;;;;;;;13.43;5.30;;;0.70;99.90;;;;;;5111627;27;20036;-67
2023/12/03 05:51:36;;;;;;;12.35;4.88;;;0.70;99.90;;;;;;5092575;27;20047;-67
2023/12/03 05:54:02;;;;;;;6.80;3.50;;;0.70;99.90;;;;;;5107274;27;20028;-67
2023/12/03 05:56:28;;;;;;;9.07;3.67;;;0.70;99.90;;;;;;5111869;27;20039;-67
2023/12/03 05:58:54;;;;;;;9.48;4.38;;;0.70;99.90;;;;;;5108068;27;20034;-68
2023/12/03 06:01:24;;;;;;;7.03;4.28;;;0.70;99.90;;;;;;5106783;27;20040;-67
2023/12/03 06:03:50;;;;;;;;;;;0.70;99.90;;;;;;5094378;27;20031;-67
2023/12/03 06:06:16;;;;;;;7.53;3.55;;;0.80;99.90;;;;;;5110974;27;20303;-67
2023/12/03 06:08:42;;;;;;;9.13;4.03;;;0.80;99.90;;;;;;5113852;27;20480;-67
2023/12/03 06:11:08;;;;;;;9.88;4.75;;;0.80;99.90;;;;;;5111862;27;20364;-67
2023/12/03 06:13:34;;;;;;;10.68;3.33;;;0.80;99.90;;;;;;5109343;27;20031;-67
2023/12/03 06:16:00;;;;;;;8.90;4.38;;;0.80;99.90;;;;;;5111359;27;20077;-67
2023/12/03 06:18:26;;;;;;;11.70;4.95;;;0.80;99.90;;;;;;5130035;27;20035;-67
2023/12/03 06:20:52;;;;;;;5.57;3.50;;;0.80;99.90;;;;;;5107943;27;20050;-67
2023/12/03 06:23:18;;;;;;;15.30;4.43;;;0.90;99.90;;;;;;5109757;27;20035;-67
2023/12/03 06:25:44;;;;;;;9.30;3.67;;;0.90;99.90;;;;;;5105481;27;20653;-67
2023/12/03 06:28:09;;;;;;;5.50;3.83;;;0.90;99.90;;;;;;5127319;27;20039;-67
2023/12/03 06:30:36;;;;;;;5.10;3.25;;;0.90;99.90;;;;;;5106783;27;20035;-67
2023/12/03 06:33:02;;;;;;;5.22;2.33;;;0.90;99.90;;;;;;5109209;27;20038;-67
2023/12/03 06:35:28;;;;;;;9.25;3.55;;;0.90;99.90;;;;;;5112396;27;20493;-67
2023/12/03 06:37:54;;;;;;;5.63;3.33;;;0.90;99.90;;;;;;5109983;27;20039;-66
2023/12/03 06:40:19;;;;;;;9.00;3.03;;;1.00;99.90;;;;;;5106408;27;20040;-67
2023/12/03 06:42:45;;;;;;;10.32;4.80;;;1.00;99.90;;;;;;5127973;27;20043;-67
2023/12/03 06:45:13;;;;;;;10.68;3.50;;;0.90;99.90;;;;;;5095225;27;20030;-67
2023/12/03 06:47:39;;;;;;;6.70;3.65;;;0.90;99.90;;;;;;5106741;27;20035;-67
2023/12/03 06:50:06;;;;;;;12.27;5.10;;;0.90;99.90;;;;;;5107275;27;20099;-66
2023/12/03 06:52:31;;;;;;;9.60;5.18;;;1.00;99.90;;;;;;5109464;27;20027;-66
2023/12/03 06:54:57;;;;;;;7.70;4.13;;;0.90;99.90;;;;;;5102033;27;20042;-67
2023/12/03 06:57:23;;;;;;;12.80;4.97;;;1.00;99.90;;;;;;5113056;27;20074;-67
2023/12/03 06:59:49;;;;;;;13.95;5.85;;;1.00;99.90;;;;;;5133245;27;20034;-67
2023/12/03 07:02:14;;;;;;;12.15;4.97;;;1.00;99.90;;;;;;5113412;27;20039;-66
2023/12/03 07:04:40;;;;;;;14.20;4.32;;;1.00;99.90;;;;;;5095735;27;20483;-67
2023/12/03 07:07:06;;;;;;;11.13;4.22;;;1.00;99.90;;;;;;5113456;27;20050;-67
2023/12/03 07:09:32;;;;;;;13.75;7.15;;;1.00;99.90;;;;;;5098388;27;20046;-68
2023/12/03 07:11:58;;;;;;;9.15;3.60;;;1.10;99.90;;;;;;5094377;27;20037;-67
2023/12/03 07:14:24;;;;;;;10.48;5.53;;;1.00;99.90;;;;;;5115705;27;20036;-67
2023/12/03 07:16:49;;;;;;;10.13;5.60;;;1.10;99.90;;;;;;5099745;27;20038;-67
2023/12/03 07:19:16;;;;;;;15.13;5.28;;;1.10;99.90;;;;;;5111267;27;20042;-67
2023/12/03 07:21:42;;;;;;;12.15;5.88;;;1.10;99.90;;;;;;5114942;27;20151;-66
2023/12/03 07:24:07;;;;;;;13.07;4.78;;;1.10;99.90;;;;;;5111759;27;20530;-66
2023/12/03 07:26:34;;;;;;;14.50;6.00;;;1.20;99.90;;;;;;5093789;27;20524;-66
2023/12/03 07:28:59;;;;;;;9.82;5.55;;;1.20;99.90;;;;;;5113622;27;20083;-66
2023/12/03 07:31:25;;;;;;;8.43;3.80;;;1.20;99.90;;;;;;5110990;27;20131;-66
2023/12/03 07:33:51;;;;;;;13.88;5.15;;;1.20;99.90;;;;;;5097207;27;20039;-66
2023/12/03 07:36:17;;;;;;;10.32;4.47;;;1.20;99.90;;;;;;5111308;27;20127;-66
2023/12/03 07:38:43;;;;;;;14.95;5.43;;;1.20;99.90;;;;;;5109762;27;20031;-66
2023/12/03 07:41:10;;;;;;;15.27;5.32;;;1.20;99.90;;;;;;5112726;27;20034;-66
2023/12/03 07:43:36;;;;;;;18.73;6.68;;;1.20;99.90;;;;;;5109860;27;20070;-66
2023/12/03 07:46:02;;;;;;;19.40;6.82;;;1.20;99.90;;;;;;5110094;27;20067;-66
2023/12/03 07:48:28;;;;;;;15.95;7.18;;;1.20;99.90;;;;;;5109050;27;20067;-65
2023/12/03 07:50:54;;;;;;;22.48;10.23;;;1.20;99.90;;;;;;5110479;27;20039;-67
2023/12/03 07:53:20;;;;;;;18.13;5.38;;;1.20;99.90;;;;;;5113738;27;20039;-66
2023/12/03 07:55:45;;;;;;;16.55;7.35;;;1.30;99.90;;;;;;5108357;27;20126;-66
2023/12/03 07:58:11;;;;;;;17.13;7.65;;;1.30;99.90;;;;;;5113567;27;20030;-66
2023/12/03 08:00:38;;;;;;;13.63;7.00;;;1.30;99.90;;;;;;5090757;27;20482;-66
2023/12/03 08:03:04;;;;;;;8.50;5.25;;;1.30;99.90;;;;;;5112453;27;20122;-66
2023/12/03 08:05:30;;;;;;;11.80;5.43;;;1.30;99.90;;;;;;5110510;27;20114;-66
2023/12/03 08:07:56;;;;;;;11.68;6.85;;;1.40;99.90;;;;;;5113158;27;20478;-67
2023/12/03 08:10:22;;;;;;;17.17;8.35;;;1.40;99.90;;;;;;5111808;27;20130;-66
2023/12/03 08:12:48;;;;;;;11.85;6.40;;;1.40;99.90;;;;;;5107406;27;20031;-66
2023/12/03 08:15:14;;;;;;;16.52;7.10;;;1.40;99.90;;;;;;5111339;27;20110;-66
2023/12/03 08:17:39;;;;;;;13.10;5.72;;;1.40;99.90;;;;;;5111517;27;20491;-66
2023/12/03 08:20:06;;;;;;;17.02;6.35;;;1.40;99.90;;;;;;5090723;27;20049;-66
2023/12/03 08:22:32;;;;;;;19.92;8.20;;;1.40;99.90;;;;;;5106322;27;20053;-66
2023/12/03 08:24:58;;;;;;;16.25;6.82;;;1.40;99.90;;;;;;5107807;27;20108;-66
2023/12/03 08:27:24;;;;;;;6.80;5.03;;;1.40;99.90;;;;;;5108260;27;20035;-66
2023/12/03 08:29:49;;;;;;;16.20;7.40;;;1.50;99.90;;;;;;5109555;27;20148;-67
2023/12/03 08:32:15;;;;;;;13.10;6.93;;;1.60;99.90;;;;;;5109746;27;20531;-67
2023/12/03 08:34:41;;;;;;;11.35;7.72;;;1.60;99.90;;;;;;5107114;27;20106;-67
2023/12/03 08:37:07;;;;;;;18.13;6.75;;;1.60;99.90;;;;;;5127668;27;20031;-67
2023/12/03 08:39:33;;;;;;;15.30;7.78;;;1.60;99.90;;;;;;5110819;27;20485;-66
2023/12/03 08:41:58;;;;;;;10.27;6.68;;;1.50;99.90;;;;;;5107833;27;20067;-66
2023/12/03 08:44:25;;;;;;;15.73;7.18;;;1.60;99.90;;;;;;5105303;28;20139;-66
2023/12/03 08:46:51;;;;;;;12.15;7.07;;;1.60;99.90;;;;;;5109838;27;20031;-66
2023/12/03 08:49:17;;;;;;;20.10;9.32;;;1.70;99.90;;;;;;5093048;28;20502;-66
2023/12/03 08:51:43;;;;;;;10.18;5.93;;;1.90;99.90;;;;;;5107332;28;20134;-66
2023/12/03 08:54:09;;;;;;;10.43;5.93;;;2.10;99.90;;;;;;5109642;27;20038;-66
2023/12/03 08:56:35;;;;;;;17.13;8.75;;;2.30;99.90;;;;;;5108519;27;20027;-66
2023/12/03 08:59:01;;;;;;;12.30;7.43;;;2.20;99.90;;;;;;5106174;28;20110;-65
2023/12/03 09:01:26;;;;;;;8.75;5.43;;;2.10;99.90;;;;;;5109595;27;20051;-66
2023/12/03 09:03:52;;;;;;;18.25;4.72;;;1.90;99.90;;;;;;5110398;28;20042;-66
2023/12/03 09:06:18;;;;;;;14.65;7.78;;;1.80;99.90;;;;;;5108842;27;20099;-66
2023/12/03 09:08:44;;;;;;;14.35;6.10;;;1.70;99.90;;;;;;5110729;27;20130;-66
2023/12/03 09:11:10;;;;;;;8.95;5.35;;;1.70;99.90;;;;;;5114795;27;20045;-65
2023/12/03 09:13:36;;;;;;;13.93;7.50;;;1.60;99.90;;;;;;5112029;27;20091;-66
2023/12/03 09:16:02;;;;;;;9.95;5.10;;;1.60;99.90;;;;;;5112514;27;20577;-66
2023/12/03 09:18:28;;;;;;;14.93;6.80;;;1.70;99.90;;;;;;5108602;27;20040;-65
2023/12/03 09:20:54;;;;;;;15.52;7.55;;;1.70;99.90;;;;;;5109574;27;20044;-66
2023/12/03 09:23:19;;;;;;;12.93;6.22;;;1.80;99.90;;;;;;5095460;27;20043;-66
2023/12/03 09:25:45;;;;;;;16.65;6.28;;;1.90;99.90;;;;;;5107195;27;20036;-66
2023/12/03 09:28:11;;;;;;;7.93;5.45;;;2.30;99.90;;;;;;5111479;27;20104;-66
2023/12/03 09:30:37;;;;;;;21.75;8.20;;;2.50;99.90;;;;;;5106709;27;20041;-65
2023/12/03 09:33:04;;;;;;;19.98;8.57;;;2.80;99.90;;;;;;5110547;27;20483;-65
2023/12/03 09:35:31;;;;;;;21.08;10.18;;;3.20;99.90;;;;;;5111829;27;20035;-66
2023/12/03 09:37:57;;;;;;;19.65;7.55;;;3.50;99.90;;;;;;5104305;27;20027;-66
2023/12/03 09:40:24;;;;;;;16.17;8.43;;;3.70;99.90;;;;;;5111227;27;20354;-66
2023/12/03 09:42:52;;;;;;;18.40;7.90;;;3.60;99.90;;;;;;5109883;27;20043;-66
2023/12/03 09:45:21;;;;;;;8.88;6.70;;;3.30;99.90;;;;;;5108676;27;20046;-66
2023/12/03 09:47:56;;;;;;;11.43;7.03;;;3.10;99.90;;;;;;5108470;27;20078;-66
2023/12/03 09:50:22;;;;;;;12.77;7.10;;;2.80;99.90;;;;;;5090809;27;20049;-66
2023/12/03 09:52:55;;;;;;;14.80;6.45;;;2.70;99.90;;;;;;5111498;27;20565;-66
2023/12/03 09:55:24;;;;;;;17.55;10.13;;;2.70;99.90;;;;;;5109513;27;20220;-66
2023/12/03 09:57:53;;;;;;;20.77;8.25;;;2.80;99.90;;;;;;5093292;27;20035;-66
2023/12/03 10:00:19;;;;;;;16.13;9.20;;;2.60;99.90;;;;;;5106313;27;20049;-66
2023/12/03 10:02:47;;;;;;;9.10;4.85;;;2.40;99.90;;;;;;5113419;27;20526;-66
2023/12/03 10:05:13;;;;;;;20.95;7.00;;;2.20;99.90;;;;;;5109401;27;20054;-65
2023/12/03 10:07:39;;;;;;;13.57;6.25;;;2.00;99.90;;;;;;5109591;27;20051;-66
2023/12/03 10:10:06;;;;;;;6.90;4.55;;;1.90;99.90;;;;;;5110462;27;20047;-65
2023/12/03 10:12:43;;;;;;;9.82;5.45;;;1.80;99.90;;;;;;5097007;27;20044;-66
2023/12/03 10:15:10;;;;;;;13.48;4.85;;;1.70;99.90;;;;;;5109549;27;20126;-66
2023/12/03 10:17:37;;;;;;;11.80;6.57;;;1.60;99.90;;;;;;5113466;27;20096;-66
2023/12/03 10:20:22;;;;;;;7.85;6.10;;;1.60;99.90;;;;;;5113010;27;20043;-65
2023/12/03 10:22:49;;;;;;;6.35;2.45;;;1.50;99.90;;;;;;5110656;27;20099;-67
2023/12/03 10:25:34;;;;;;;4.13;2.78;;;1.50;99.90;;;;;;5097872;27;20113;-66
2023/12/03 10:28:05;;;;;;;8.75;5.43;;;1.40;99.90;;;;;;5117442;27;20050;-66
2023/12/03 10:30:31;;;;;;;10.20;6.55;;;1.40;99.90;;;;;;5109072;27;20047;-66
2023/12/03 10:32:57;;;;;;;7.32;3.58;;;1.30;99.90;;;;;;5109173;27;20039;-66
2023/12/03 10:35:25;;;;;;;13.10;4.22;;;1.30;99.90;;;;;;5112010;27;20039;-66
2023/12/03 10:37:51;;;;;;;8.95;3.03;;;1.30;99.90;;;;;;5112526;27;20032;-67
2023/12/03 10:40:19;;;;;;;8.10;4.53;;;1.20;99.90;;;;;;5093560;27;20550;-66
2023/12/03 10:42:46;;;;;;;8.63;4.63;;;1.10;99.90;;;;;;5111065;27;20082;-66
2023/12/03 10:45:13;;;;;;;7.70;4.28;;;1.10;99.90;;;;;;5112307;27;20043;-65
2023/12/03 10:47:40;;;;;;;6.00;3.88;;;1.10;99.90;;;;;;5111482;27;20039;-66
2023/12/03 10:50:09;;;;;;;6.95;3.45;;;1.20;99.90;;;;;;5112098;27;20039;-66
2023/12/03 10:52:36;;;;;;;6.85;4.15;;;1.20;99.90;;;;;;5112753;27;20039;-66
2023/12/03 10:55:04;;;;;;;8.30;4.70;;;1.20;99.90;;;;;;5111975;27;20046;-66
2023/12/03 10:57:31;;;;;;;17.67;6.47;;;1.20;99.90;;;;;;5095795;27;20062;-67
2023/12/03 11:00:11;;;;;;;10.95;5.85;;;1.20;99.90;;;;;;5110487;27;20439;-67
2023/12/03 11:03:09;;;;;;;4.93;2.60;;;1.20;99.90;;;;;;5108865;27;20126;-66
2023/12/03 11:05:53;;;;;;;16.67;7.80;;;1.30;99.90;;;;;;5124011;27;20044;-67
2023/12/03 11:08:22;;;;;;;8.70;4.07;;;1.20;99.90;;;;;;5115984;27;20031;-66
2023/12/03 11:10:51;;;;;;;9.27;5.18;;;1.30;99.90;;;;;;5102662;27;20486;-66
2023/12/03 11:13:17;;;;;;;5.35;4.07;;;1.30;99.90;;;;;;5097130;27;20066;-66
2023/12/03 11:15:46;;;;;;;10.93;5.63;;;1.40;99.90;;;;;;5111116;27;20697;-66
2023/12/03 11:18:14;;;;;;;15.25;4.22;;;1.40;99.90;;;;;;5106914;27;20043;-67
2023/12/03 11:20:44;;;;;;;13.38;7.47;;;1.40;99.90;;;;;;5116191;27;20051;-67
2023/12/03 11:23:32;;;;;;;9.35;4.57;;;1.40;99.90;;;;;;5098880;27;20038;-67
2023/12/03 11:26:06;;;;;;;14.35;6.90;;;1.40;99.90;;;;;;5122468;27;20046;-66
2023/12/03 11:28:32;;;;;;;14.45;7.00;;;1.40;99.90;;;;;;5096073;27;20502;-65
2023/12/03 11:30:58;;;;;;;6.07;5.50;;;1.40;99.90;;;;;;5107250;27;20558;-66
2023/12/03 11:33:29;;;;;;;11.18;6.30;;;1.70;99.90;;;;;;5109070;27;20035;-65
2023/12/03 11:35:59;;;;;;;15.75;8.43;;;2.10;99.90;;;;;;5096872;27;20039;-65
2023/12/03 11:38:32;;;;;;;10.43;5.22;;;2.30;99.90;;;;;;5119660;27;20623;-65
2023/12/03 11:41:02;;;;;;;16.92;7.93;;;2.30;99.90;;;;;;5099077;27;20054;-66
2023/12/03 11:43:30;;;;;;;14.55;7.82;;;2.30;99.90;;;;;;5086270;27;20127;-66
2023/12/03 11:45:57;;;;;;;15.20;7.65;;;2.50;99.90;;;;;;5121805;27;20045;-66
2023/12/03 11:48:27;;;;;;;13.57;6.55;;;2.40;99.90;;;;;;5114129;27;20463;-66
2023/12/03 11:50:55;;;;;;;12.25;7.93;;;2.50;99.90;;;;;;5106931;27;20114;-66
2023/12/03 11:53:40;;;;;;;15.23;6.97;;;2.50;99.90;;;;;;5116854;27;20038;-66
2023/12/03 11:56:11;;;;;;;9.73;5.95;;;2.70;99.90;;;;;;5117634;27;20035;-66
2023/12/03 11:58:36;;;;;;;12.95;6.95;;;2.90;99.90;;;;;;5118790;27;20046;-67
2023/12/03 12:01:02;;;;;;;13.75;6.43;;;3.10;99.90;;;;;;5121711;27;20309;-67
2023/12/03 12:03:28;;;;;;;11.05;7.45;;;3.20;99.90;;;;;;5117431;27;20035;-65
2023/12/03 12:05:54;;;;;;;9.18;7.57;;;3.30;99.90;;;;;;5112604;27;20057;-67
2023/12/03 12:08:23;;;;;;;12.90;7.35;;;3.40;99.90;;;;;;5117340;27;20112;-67
2023/12/03 12:10:51;;;;;;;15.43;7.00;;;3.40;99.90;;;;;;5119150;27;20050;-67
2023/12/03 12:13:18;;;;;;;6.70;4.65;;;3.40;99.90;;;;;;5115198;27;20034;-66
2023/12/03 12:15:44;;;;;;;23.50;8.27;;;3.50;99.90;;;;;;5115435;27;20127;-67
2023/12/03 12:18:11;;;;;;;19.88;7.60;;;3.50;99.90;;;;;;5116350;27;20111;-66
2023/12/03 12:20:37;;;;;;;16.48;7.43;;;3.70;99.90;;;;;;5117990;27;20495;-67
2023/12/03 12:23:03;;;;;;;19.45;9.75;;;3.80;99.90;;;;;;5094067;27;20412;-66
2023/12/03 12:25:30;;;;;;;13.55;7.25;;;3.90;99.90;;;;;;5100887;27;20046;-66
2023/12/03 12:27:56;;;;;;;12.95;7.07;;;3.80;99.90;;;;;;5121318;27;20042;-66
2023/12/03 12:30:28;;;;;;;8.93;5.45;;;3.70;99.90;;;;;;5119807;27;20027;-66
2023/12/03 12:32:54;;;;;;;12.18;5.18;;;3.70;99.90;;;;;;5117242;27;20034;-66
2023/12/03 12:35:24;;;;;;;10.52;7.18;;;3.60;99.90;;;;;;5121328;27;20115;-66
2023/12/03 12:38:05;;;;;;;9.05;4.82;;;3.50;99.90;;;;;;5114467;27;20042;-66
2023/12/03 12:40:32;;;;;;;10.38;5.53;;;3.30;99.90;;;;;;5116422;27;20116;-67
2023/12/03 12:43:14;;;;;;;13.40;5.32;;;3.20;99.90;;;;;;5113650;27;20050;-66
2023/12/03 12:45:40;;;;;;;9.20;4.50;;;3.00;99.90;;;;;;5113753;27;20050;-66
2023/12/03 12:48:30;;;;;;;4.25;3.10;;;2.80;99.90;;;;;;5104636;27;20035;-66
2023/12/03 12:50:56;;;;;;;8.07;4.13;;;2.70;99.90;;;;;;5114691;27;20070;-66